Time;durP1;ratioP1;P1;durP2;ratioP2;P2;SDS_P1;SDS_P2;PMS_P1;PMS_P2;Temp;Humidity;BMP_temperature;BMP_pressure;BME280_temperature;BME280_humidity;BME280_pressure;Samples;Min_cycle;Max_cycle;Signal;HPM_P1;HPM_P2
2022/09/28 00:00:36;;;;;;;;;;;16.40;69.60;;;;;;5002247;28;92612;-41
2022/09/28 00:03:02;;;;;;;;;;;16.40;69.60;;;;;;5000786;28;94197;-42
2022/09/28 00:05:27;;;;;;;;;;;16.40;69.60;;;;;;5002106;28;92005;-41
2022/09/28 00:07:53;;;;;;;;;;;16.30;69.50;;;;;;5002060;28;92483;-42
2022/09/28 00:10:21;;;;;;;;;;;16.30;69.60;;;;;;5001451;28;92623;-41
2022/09/28 00:12:51;;;;;;;;;;;16.30;70.10;;;;;;5001841;28;92108;-42
2022/09/28 00:15:17;;;;;;;;;;;16.30;69.60;;;;;;5001921;28;92370;-42
2022/09/28 00:17:45;;;;;;;;;;;16.30;69.60;;;;;;5001533;28;93131;-41
2022/09/28 00:20:11;;;;;;;;;;;16.30;69.60;;;;;;5005452;28;91372;-42
2022/09/28 00:22:36;;;;;;;;;;;16.30;69.60;;;;;;5001345;28;93001;-41
2022/09/28 00:25:02;;;;;;;;;;;16.30;69.50;;;;;;5001864;28;92185;-42
2022/09/28 00:27:28;;;;;;;;;;;16.30;69.60;;;;;;5001175;28;92924;-42
2022/09/28 00:29:54;;;;;;;;;;;16.30;69.50;;;;;;5001219;28;93189;-41
2022/09/28 00:32:23;;;;;;;;;;;16.30;69.50;;;;;;5001704;28;93032;-42
2022/09/28 00:34:49;;;;;;;;;;;16.20;69.60;;;;;;5001562;28;92927;-42
2022/09/28 00:37:15;;;;;;;;;;;16.20;69.60;;;;;;5001077;28;95090;-42
2022/09/28 00:39:40;;;;;;;;;;;16.20;69.70;;;;;;5003953;28;92067;-42
2022/09/28 00:42:13;;;;;;;;;;;16.20;69.60;;;;;;5001128;28;93617;-41
2022/09/28 00:44:45;;;;;;;;;;;16.20;69.50;;;;;;5002105;28;91742;-42
2022/09/28 00:47:13;;;;;;;;;;;16.20;69.60;;;;;;5001698;28;92325;-41
2022/09/28 00:49:42;;;;;;;;;;;16.20;69.60;;;;;;5000937;28;93087;-41
2022/09/28 00:52:09;;;;;;;;;;;16.20;70.20;;;;;;5000691;28;93053;-41
2022/09/28 00:54:35;;;;;;;;;;;16.10;69.60;;;;;;5001226;28;93382;-42
2022/09/28 00:57:01;;;;;;;;;;;16.20;69.60;;;;;;5000845;28;93184;-41
2022/09/28 00:59:27;;;;;;;;;;;16.20;69.60;;;;;;5001491;28;92130;-41
2022/09/28 01:01:52;;;;;;;;;;;16.10;69.60;;;;;;5003865;28;92379;-41
2022/09/28 01:04:18;;;;;;;;;;;16.10;69.60;;;;;;5000850;28;92159;-42
2022/09/28 01:06:44;;;;;;;;;;;16.10;69.70;;;;;;5001282;28;92349;-41
2022/09/28 01:09:11;;;;;;;;;;;16.10;69.50;;;;;;5000894;28;92319;-41
2022/09/28 01:11:37;;;;;;;;;;;16.10;69.60;;;;;;5001204;28;92317;-42
2022/09/28 01:14:05;;;;;;;;;;;16.10;69.70;;;;;;5000886;28;94773;-41
2022/09/28 01:16:51;;;;;;;;;;;16.10;69.60;;;;;;4999767;28;94159;-41
2022/09/28 01:19:35;;;;;;;;;;;16.00;69.60;;;;;;5001146;28;92025;-41
2022/09/28 01:22:19;;;;;;;;;;;16.00;69.60;;;;;;5001075;28;92370;-42
2022/09/28 01:24:46;;;;;;;;;;;16.00;69.60;;;;;;5003606;28;92972;-42
2022/09/28 01:27:21;;;;;;;;;;;16.00;69.60;;;;;;5000808;28;92029;-41
2022/09/28 01:29:54;;;;;;;;;;;16.00;69.60;;;;;;5000453;28;92155;-41
2022/09/28 01:32:25;;;;;;;;;;;15.90;69.60;;;;;;5000858;28;92075;-41
2022/09/28 01:34:57;;;;;;;;;;;16.00;69.60;;;;;;5001410;28;92341;-41
2022/09/28 01:37:26;;;;;;;;;;;15.90;69.60;;;;;;5000331;28;93595;-41
2022/09/28 01:39:52;;;;;;;;;;;15.90;69.50;;;;;;5000253;28;92032;-41
2022/09/28 01:42:23;;;;;;;;;;;15.90;69.60;;;;;;5000087;28;92972;-41
2022/09/28 01:44:51;;;;;;;;;;;15.90;69.50;;;;;;5000206;28;92973;-41
2022/09/28 01:47:19;;;;;;;;;;;15.90;69.50;;;;;;5003880;28;91889;-41
2022/09/28 01:49:47;;;;;;;;;;;15.90;69.50;;;;;;4999904;28;93053;-41
2022/09/28 01:52:16;;;;;;;;;;;15.90;69.50;;;;;;5000311;28;92928;-42
2022/09/28 01:54:49;;;;;;;;;;;15.90;69.40;;;;;;5000241;28;92537;-41
2022/09/28 01:57:17;;;;;;;;;;;15.90;69.50;;;;;;4999852;28;93077;-42
2022/09/28 01:59:48;;;;;;;;;;;15.90;69.40;;;;;;5000962;28;91318;-41
2022/09/28 02:02:18;;;;;;;;;;;15.90;69.50;;;;;;5000454;28;91960;-41
2022/09/28 02:04:53;;;;;;;;;;;15.80;69.60;;;;;;4999677;28;93095;-41
2022/09/28 02:07:27;;;;;;;;;;;15.90;69.40;;;;;;4999846;28;93072;-41
2022/09/28 02:09:56;;;;;;;;;;;15.80;69.50;;;;;;5002308;28;95330;-41
2022/09/28 02:12:25;;;;;;;;;;;15.80;69.50;;;;;;4999851;28;92218;-41
2022/09/28 02:14:53;;;;;;;;;;;15.80;69.40;;;;;;4998846;28;95279;-41
2022/09/28 02:17:18;;;;;;;;;;;15.80;69.40;;;;;;4999587;28;93305;-41
2022/09/28 02:19:44;;;;;;;;;;;15.80;69.50;;;;;;5000147;28;92277;-41
2022/09/28 02:22:22;;;;;;;;;;;15.80;69.40;;;;;;5000092;28;92477;-41
2022/09/28 02:24:56;;;;;;;;;;;15.80;69.60;;;;;;5000282;28;92424;-41
2022/09/28 02:27:28;;;;;;;;;;;15.70;69.50;;;;;;4999943;28;92079;-41
2022/09/28 02:29:54;;;;;;;;;;;15.70;69.50;;;;;;5002433;28;92457;-41
2022/09/28 02:32:19;;;;;;;;;;;15.70;69.60;;;;;;4999294;28;93112;-42
2022/09/28 02:34:45;;;;;;;;;;;15.70;69.40;;;;;;4999914;28;93403;-41
2022/09/28 02:37:11;;;;;;;;;;;15.70;69.40;;;;;;4999411;28;92825;-41
2022/09/28 02:39:36;;;;;;;;;;;15.70;69.40;;;;;;5000079;28;92084;-41
2022/09/28 02:42:15;;;;;;;;;;;15.70;69.50;;;;;;4999766;28;92031;-41
2022/09/28 02:44:46;;;;;;;;;;;15.70;69.50;;;;;;4999191;28;93083;-41
2022/09/28 02:47:21;;;;;;;;;;;15.70;69.50;;;;;;4999972;28;92602;-41
2022/09/28 02:49:49;;;;;;;;;;;15.70;69.40;;;;;;5000352;28;91868;-41
2022/09/28 02:52:15;;;;;;;;;;;15.60;69.40;;;;;;5002112;28;93135;-41
2022/09/28 02:54:51;;;;;;;;;;;15.70;69.40;;;;;;4999654;28;92749;-41
2022/09/28 02:57:35;;;;;;;;;;;15.60;69.40;;;;;;4998194;28;94261;-41
2022/09/28 03:00:04;;;;;;;;;;;15.60;69.30;;;;;;4999540;28;92086;-41
2022/09/28 03:02:33;;;;;;;;;;;15.60;69.50;;;;;;4998600;28;92556;-41
2022/09/28 03:05:13;;;;;;;;;;;15.60;69.40;;;;;;4998863;28;93291;-41
2022/09/28 03:08:11;;;;;;;;;;;15.60;69.50;;;;;;4999087;28;92127;-41
2022/09/28 03:10:43;;;;;;;;;;;15.60;69.40;;;;;;4986227;28;92406;-42
2022/09/28 03:13:10;;;;;;;;;;;15.60;69.40;;;;;;4998757;28;93063;-41
2022/09/28 03:15:35;;;;;;;;;;;15.50;69.50;;;;;;5002787;28;91401;-41
2022/09/28 03:18:01;;;;;;;;;;;15.50;69.40;;;;;;4998709;28;93259;-41
2022/09/28 03:20:27;;;;;;;;;;;15.60;69.40;;;;;;4999263;28;92055;-41
2022/09/28 03:22:53;;;;;;;;;;;15.60;69.40;;;;;;4998710;28;93099;-41
2022/09/28 03:25:18;;;;;;;;;;;15.50;69.40;;;;;;4998650;28;93058;-41
2022/09/28 03:27:44;;;;;;;;;;;15.60;69.30;;;;;;4999120;28;92091;-41
2022/09/28 03:30:10;;;;;;;;;;;15.50;69.30;;;;;;4999104;28;92579;-41
2022/09/28 03:32:36;;;;;;;;;;;15.50;69.30;;;;;;4998220;28;94693;-41
2022/09/28 03:35:01;;;;;;;;;;;15.50;69.30;;;;;;4998888;28;92137;-41
2022/09/28 03:37:27;;;;;;;;;;;15.50;70.00;;;;;;5001662;28;92219;-41
2022/09/28 03:39:53;;;;;;;;;;;15.50;69.40;;;;;;4999489;28;91418;-41
2022/09/28 03:42:18;;;;;;;;;;;15.50;69.30;;;;;;4998994;28;92026;-41
2022/09/28 03:44:44;;;;;;;;;;;15.50;69.20;;;;;;4998486;28;93228;-41
2022/09/28 03:47:09;;;;;;;;;;;15.50;69.20;;;;;;4998405;28;93140;-41
2022/09/28 03:49:35;;;;;;;;;;;15.50;69.20;;;;;;4998793;28;93352;-41
2022/09/28 03:52:01;;;;;;;;;;;15.50;69.30;;;;;;4998235;28;93176;-41
2022/09/28 03:54:26;;;;;;;;;;;15.50;69.30;;;;;;4998576;28;92127;-41
2022/09/28 03:56:52;;;;;;;;;;;15.50;69.20;;;;;;4998931;28;92429;-41
2022/09/28 03:59:17;;;;;;;;;;;15.50;69.20;;;;;;5001341;28;93442;-41
2022/09/28 04:01:43;;;;;;;;;;;15.40;69.20;;;;;;4998689;28;92415;-41
2022/09/28 04:04:12;;;;;;;;;;;15.40;69.30;;;;;;4998442;28;92439;-41
2022/09/28 04:06:37;;;;;;;;;;;15.40;69.30;;;;;;4998761;28;92088;-41
2022/09/28 04:09:03;;;;;;;;;;;15.40;69.40;;;;;;4998695;28;92136;-41
2022/09/28 04:11:28;;;;;;;;;;;15.40;69.20;;;;;;4997423;28;94337;-41
2022/09/28 04:13:54;;;;;;;;;;;15.40;69.20;;;;;;5001171;28;92120;-41
2022/09/28 04:16:20;;;;;;;;;;;15.40;69.30;;;;;;5001864;28;92407;-41
2022/09/28 04:18:47;;;;;;;;;;;15.40;69.20;;;;;;5001490;28;92850;-41
2022/09/28 04:21:14;;;;;;;;;;;15.40;69.20;;;;;;5005034;28;92111;-41
2022/09/28 04:23:39;;;;;;;;;;;15.40;69.30;;;;;;5001444;28;93051;-41
2022/09/28 04:26:06;;;;;;;;;;;15.30;69.30;;;;;;5001881;28;92203;-41
2022/09/28 04:31:20;;;;;;;;;;;15.30;69.20;;;;;;5001168;28;92285;-41
2022/09/28 04:33:45;;;;;;;;;;;15.30;69.30;;;;;;5001709;28;92069;-41
2022/09/28 04:36:11;;;;;;;;;;;15.30;69.30;;;;;;5001227;28;92833;-41
2022/09/28 04:38:37;;;;;;;;;;;15.30;69.30;;;;;;5001216;28;93019;-41
2022/09/28 04:41:03;;;;;;;;;;;15.30;69.30;;;;;;5004818;28;92106;-41
2022/09/28 04:43:28;;;;;;;;;;;15.30;69.30;;;;;;5001381;28;93033;-41
2022/09/28 04:46:01;;;;;;;;;;;15.30;69.40;;;;;;5001451;28;92135;-41
2022/09/28 04:48:27;;;;;;;;;;;15.30;69.40;;;;;;5001581;28;92374;-41
2022/09/28 04:50:53;;;;;;;;;;;15.30;69.30;;;;;;5001011;28;93000;-41
2022/09/28 04:53:19;;;;;;;;;;;15.20;69.30;;;;;;5001863;28;91783;-41
2022/09/28 04:55:53;;;;;;;;;;;15.30;69.20;;;;;;5001378;28;92043;-41
2022/09/28 04:58:18;;;;;;;;;;;15.20;69.40;;;;;;5000777;28;92995;-41
2022/09/28 05:00:44;;;;;;;;;;;15.30;69.30;;;;;;5000673;28;93229;-41
2022/09/28 05:03:09;;;;;;;;;;;15.30;69.20;;;;;;5003944;28;93425;-41
2022/09/28 05:05:35;;;;;;;;;;;15.30;69.20;;;;;;5001343;28;92194;-41
2022/09/28 05:08:00;;;;;;;;;;;15.20;69.20;;;;;;5001447;28;92520;-41
2022/09/28 05:10:26;;;;;;;;;;;15.30;69.30;;;;;;5000258;28;93200;-41
2022/09/28 05:12:51;;;;;;;;;;;15.20;69.20;;;;;;5001179;28;92192;-41
2022/09/28 05:15:17;;;;;;;;;;;15.20;69.20;;;;;;5001119;28;92702;-41
2022/09/28 05:17:42;;;;;;;;;;;15.20;69.30;;;;;;5001329;28;92486;-41
2022/09/28 05:20:08;;;;;;;;;;;15.20;69.30;;;;;;5001041;28;92202;-41
2022/09/28 05:22:33;;;;;;;;;;;15.20;69.20;;;;;;5001037;28;92394;-41
2022/09/28 05:24:59;;;;;;;;;;;15.20;70.00;;;;;;5002436;28;94123;-41
2022/09/28 05:27:24;;;;;;;;;;;15.20;69.40;;;;;;5001034;28;93663;-41
2022/09/28 05:29:50;;;;;;;;;;;15.20;69.40;;;;;;5000239;28;93276;-41
2022/09/28 05:32:15;;;;;;;;;;;15.20;69.30;;;;;;5000803;28;92147;-41
2022/09/28 05:34:41;;;;;;;;;;;15.20;69.50;;;;;;5000866;28;92051;-41
2022/09/28 05:37:06;;;;;;;;;;;15.20;69.40;;;;;;5000405;28;92993;-41
2022/09/28 05:39:32;;;;;;;;;;;15.20;69.90;;;;;;5000833;28;92201;-41
2022/09/28 05:41:57;;;;;;;;;;;15.20;69.30;;;;;;5001316;28;91704;-41
2022/09/28 05:44:23;;;;;;;;;;;15.10;69.20;;;;;;4999962;28;93094;-41
2022/09/28 05:46:49;;;;;;;;;;;15.10;69.30;;;;;;5003752;28;92105;-41
2022/09/28 05:49:16;;;;;;;;;;;15.20;69.30;;;;;;4999390;28;93069;-41
2022/09/28 05:51:41;;;;;;;;;;;15.10;69.10;;;;;;5000719;28;92110;-41
2022/09/28 05:54:07;;;;;;;;;;;15.20;69.30;;;;;;5000399;28;92321;-41
2022/09/28 05:56:32;;;;;;;;;;;15.10;69.20;;;;;;4999745;28;93264;-41
2022/09/28 05:58:58;;;;;;;;;;;15.10;69.20;;;;;;5000134;28;92152;-41
2022/09/28 06:01:24;;;;;;;;;;;15.10;69.40;;;;;;5000383;28;92342;-41
2022/09/28 06:03:49;;;;;;;;;;;15.10;69.30;;;;;;4999831;28;93003;-41
2022/09/28 06:06:15;;;;;;;;;;;15.10;69.20;;;;;;5000981;28;91344;-41
2022/09/28 06:08:45;;;;;;;;;;;15.10;69.30;;;;;;5002508;28;92015;-41
2022/09/28 06:11:11;;;;;;;;;;;15.10;69.30;;;;;;5000540;28;91947;-41
2022/09/28 06:13:38;;;;;;;;;;;15.10;69.20;;;;;;4999572;28;93025;-41
2022/09/28 06:16:06;;;;;;;;;;;15.10;69.20;;;;;;4999552;28;93010;-41
2022/09/28 06:18:32;;;;;;;;;;;15.10;69.20;;;;;;5000288;28;92141;-41
2022/09/28 06:20:57;;;;;;;;;;;15.10;69.20;;;;;;5000075;28;92479;-41
2022/09/28 06:23:22;;;;;;;;;;;15.10;69.20;;;;;;4999508;28;93214;-41
2022/09/28 06:25:48;;;;;;;;;;;15.10;69.10;;;;;;5000021;28;92175;-41
2022/09/28 06:28:14;;;;;;;;;;;15.10;69.30;;;;;;5000034;28;92368;-41
2022/09/28 06:30:40;;;;;;;;;;;15.10;69.30;;;;;;5003033;28;92161;-41
2022/09/28 06:33:07;;;;;;;;;;;15.10;69.40;;;;;;4999931;28;91912;-41
2022/09/28 06:35:32;;;;;;;;;;;15.10;69.30;;;;;;4999281;28;92969;-41
2022/09/28 06:37:58;;;;;;;;;;;15.10;69.30;;;;;;4998564;28;92952;-41
2022/09/28 06:40:24;;;;;;;;;;;15.10;69.40;;;;;;4999844;28;93341;-41
2022/09/28 06:42:53;;;;;;;;;;;15.10;69.20;;;;;;4999165;28;93155;-41
2022/09/28 06:45:20;;;;;;;;;;;15.10;69.40;;;;;;4999807;28;92122;-41
2022/09/28 06:47:51;;;;;;;;;;;15.00;69.50;;;;;;4999712;28;92399;-41
2022/09/28 06:50:16;;;;;;;;;;;15.10;69.50;;;;;;5002194;28;93171;-41
2022/09/28 06:52:42;;;;;;;;;;;15.10;69.50;;;;;;4999679;28;92561;-41
2022/09/28 06:55:07;;;;;;;;;;;15.10;69.50;;;;;;4999548;28;92241;-41
2022/09/28 06:57:33;;;;;;;;;;;15.00;69.60;;;;;;4999185;28;92000;-41
2022/09/28 06:59:58;;;;;;;;;;;15.10;69.70;;;;;;4999668;28;92479;-41
2022/09/28 07:02:24;;;;;;;;;;;15.10;69.70;;;;;;4998459;28;93583;-41
2022/09/28 07:04:49;;;;;;;;;;;15.10;69.50;;;;;;4999558;28;92477;-41
2022/09/28 07:07:15;;;;;;;;;;;15.00;69.60;;;;;;4999348;28;92379;-41
2022/09/28 07:09:40;;;;;;;;;;;15.10;69.60;;;;;;4998407;28;93177;-41
2022/09/28 07:12:09;;;;;;;;;;;15.00;69.70;;;;;;5002504;28;93292;-41
2022/09/28 07:14:34;;;;;;;;;;;15.00;69.80;;;;;;4998591;28;93091;-41
2022/09/28 07:17:01;;;;;;;;;;;15.00;69.80;;;;;;4999428;28;92173;-41
2022/09/28 07:19:26;;;;;;;;;;;15.00;69.60;;;;;;4999835;28;92394;-41
2022/09/28 07:21:52;;;;;;;;;;;15.10;69.60;;;;;;4998720;28;93043;-41
2022/09/28 07:24:17;;;;;;;;;;;15.10;69.60;;;;;;4999452;28;92404;-41
2022/09/28 07:26:44;;;;;;;;;;;15.10;69.60;;;;;;4998584;28;92983;-41
2022/09/28 07:29:10;;;;;;;;;;;15.10;69.80;;;;;;4998598;28;93083;-41
2022/09/28 07:31:36;;;;;;;;;;;15.00;69.90;;;;;;4999211;28;91941;-41
2022/09/28 07:34:01;;;;;;;;;;;15.00;70.00;;;;;;5001513;28;92069;-41
2022/09/28 07:36:28;;;;;;;;;;;15.00;69.90;;;;;;4999121;28;92221;-41
2022/09/28 07:38:54;;;;;;;;;;;14.90;70.20;;;;;;4999066;28;91986;-41
2022/09/28 07:41:31;;;;;;;;;;;14.90;70.10;;;;;;4998334;28;93060;-41
2022/09/28 07:43:57;;;;;;;;;;;14.90;70.20;;;;;;4999609;28;91290;-41
2022/09/28 07:46:23;;;;;;;;;;;14.90;70.10;;;;;;4999036;28;92134;-41
2022/09/28 07:48:50;;;;;;;;;;;14.90;70.10;;;;;;5001158;28;93121;-41
2022/09/28 07:51:18;;;;;;;;;;;14.90;70.20;;;;;;5001699;28;93361;-41
2022/09/28 07:53:44;;;;;;;;;;;14.90;69.80;;;;;;5002264;28;93337;-41
2022/09/28 07:56:10;;;;;;;;;;;15.00;69.70;;;;;;5004697;28;93179;-41
2022/09/28 07:58:37;;;;;;;;;;;15.00;70.00;;;;;;5002379;28;92230;-42
2022/09/28 08:01:04;;;;;;;;;;;15.00;69.70;;;;;;5001912;28;92949;-42
2022/09/28 08:03:29;;;;;;;;;;;15.00;69.70;;;;;;5002189;28;92110;-42
2022/09/28 08:05:59;;;;;;;;;;;15.00;69.80;;;;;;5002376;28;92648;-41
2022/09/28 08:08:25;;;;;;;;;;;15.10;69.60;;;;;;5001871;28;92536;-42
2022/09/28 08:10:51;;;;;;;;;;;14.90;70.50;;;;;;5002081;28;92037;-41
2022/09/28 08:13:17;;;;;;;;;;;14.90;70.10;;;;;;5002237;28;92528;-42
2022/09/28 08:15:43;;;;;;;;;;;15.00;70.20;;;;;;5000943;28;93862;-42
2022/09/28 08:18:09;;;;;;;;;;;15.00;70.20;;;;;;5005167;28;92208;-42
2022/09/28 08:23:19;;;;;;;;;;;14.90;70.20;;;;;;5001837;28;92123;-42
2022/09/28 08:25:49;;;;;;;;;;;14.90;70.30;;;;;;5001828;28;92093;-42
2022/09/28 08:28:16;;;;;;;;;;;14.90;70.50;;;;;;5001350;28;92973;-42
2022/09/28 08:30:43;;;;;;;;;;;14.80;70.40;;;;;;5001879;28;92152;-41
2022/09/28 08:33:08;;;;;;;;;;;14.90;70.40;;;;;;5002162;28;92374;-41
2022/09/28 08:35:34;;;;;;;;;;;15.00;70.20;;;;;;5001369;28;93177;-41
2022/09/28 08:38:02;;;;;;;;;;;15.00;70.20;;;;;;5000175;28;92120;-42
2022/09/28 08:40:28;;;;;;;;;;;15.00;70.30;;;;;;5003588;28;92973;-41
2022/09/28 08:42:55;;;;;;;;;;;15.00;70.30;;;;;;5001744;28;92118;-41
2022/09/28 08:45:26;;;;;;;;;;;15.00;70.30;;;;;;5001414;28;92446;-41
2022/09/28 08:50:40;;;;;;;;;;;15.00;70.50;;;;;;5001617;28;92143;-41
2022/09/28 08:53:18;;;;;;;;;;;15.00;70.40;;;;;;5001594;28;92582;-41
2022/09/28 08:55:44;;;;;;;;;;;15.00;70.30;;;;;;5000998;28;93264;-41
2022/09/28 08:58:12;;;;;;;;;;;15.00;70.40;;;;;;5002009;28;91390;-41
2022/09/28 09:00:46;;;;;;;;;;;15.00;70.50;;;;;;5002975;28;92039;-42
2022/09/28 09:03:13;;;;;;;;;;;15.00;70.30;;;;;;5001173;28;92136;-41
2022/09/28 09:05:59;;;;;;;;;;;15.00;70.30;;;;;;5000652;28;92864;-41
2022/09/28 09:08:38;;;;;;;;;;;15.00;70.30;;;;;;4999602;28;93071;-43
2022/09/28 09:11:12;;;;;;;;;;;15.00;70.20;;;;;;5001311;28;92096;-42
2022/09/28 09:13:41;;;;;;;;;;;15.00;70.30;;;;;;5001116;28;92076;-42
2022/09/28 09:16:06;;;;;;;;;;;15.00;70.30;;;;;;5000711;28;92968;-42
2022/09/28 09:18:36;;;;;;;;;;;15.10;70.20;;;;;;5001201;28;92107;-42
2022/09/28 09:21:07;;;;;;;;;;;15.00;70.20;;;;;;5000990;28;92339;-42
2022/09/28 09:23:36;;;;;;;;;;;15.00;70.40;;;;;;5004205;28;92274;-42
2022/09/28 09:26:11;;;;;;;;;;;15.10;70.30;;;;;;5000748;28;92055;-42
2022/09/28 09:28:49;;;;;;;;;;;15.00;70.20;;;;;;5000510;28;93152;-41
2022/09/28 09:31:25;;;;;;;;;;;15.00;70.70;;;;;;5000444;28;92991;-41
2022/09/28 09:33:52;;;;;;;;;;;15.10;70.60;;;;;;5000844;28;93275;-41
2022/09/28 09:36:23;;;;;;;;;;;15.10;70.40;;;;;;5000333;28;92922;-42
2022/09/28 09:38:56;;;;;;;;;;;15.10;70.40;;;;;;5001378;28;92193;-43
2022/09/28 09:41:31;;;;;;;;;;;15.10;70.30;;;;;;5000792;28;92488;-42
2022/09/28 09:44:04;;;;;;;;;;;15.10;70.50;;;;;;5000223;28;92985;-43
2022/09/28 09:46:33;;;;;;;;;;;15.10;70.50;;;;;;5004010;28;91842;-43
2022/09/28 09:49:17;;;;;;;;;;;15.10;70.70;;;;;;5000604;28;92551;-43
2022/09/28 09:51:42;;;;;;;;;;;15.10;70.40;;;;;;5000534;28;92309;-42
2022/09/28 09:54:14;;;;;;;;;;;15.10;70.60;;;;;;5000614;28;92419;-42
2022/09/28 09:56:49;;;;;;;;;;;15.10;70.50;;;;;;4999141;28;94210;-43
2022/09/28 09:59:23;;;;;;;;;;;15.20;70.60;;;;;;5000632;28;92000;-42
2022/09/28 10:01:49;;;;;;;;;;;15.20;70.70;;;;;;5000499;28;92016;-43
2022/09/28 10:04:26;;;;;;;;;;;15.20;70.90;;;;;;4999937;28;92641;-43
2022/09/28 10:06:56;;;;;;;;;;;15.20;71.00;;;;;;5000429;28;91972;-43
2022/09/28 10:09:23;;;;;;;;;;;15.20;70.70;;;;;;5002297;28;92377;-43
2022/09/28 10:11:50;;;;;;;;;;;15.20;70.80;;;;;;5000380;28;92031;-43
2022/09/28 10:14:18;;;;;;;;;;;15.20;71.30;;;;;;5000488;28;93364;-42
2022/09/28 10:16:47;;;;;;;;;;;15.20;70.90;;;;;;4999585;28;92206;-42
2022/09/28 10:19:13;;;;;;;;;;;15.20;70.90;;;;;;5000203;28;92131;-42
2022/09/28 10:21:40;;;;;;;;;;;15.20;71.20;;;;;;4999491;28;92943;-42
2022/09/28 10:24:14;;;;;;;;;;;15.20;71.20;;;;;;4999622;28;92981;-42
2022/09/28 10:26:42;;;;;;;;;;;15.20;71.40;;;;;;5000089;28;91963;-42
2022/09/28 10:29:13;;;;;;;;;;;15.20;71.40;;;;;;4999966;28;92472;-42
2022/09/28 10:31:43;;;;;;;;;;;15.30;70.90;;;;;;5002352;28;93124;-42
2022/09/28 10:34:13;;;;;;;;;;;15.20;71.10;;;;;;4999860;28;92476;-42
2022/09/28 10:36:54;;;;;;;;;;;15.30;70.90;;;;;;4999207;28;93059;-42
2022/09/28 10:39:32;;;;;;;;;;;15.30;71.30;;;;;;5000279;28;91482;-43
2022/09/28 10:42:01;;;;;;;;;;;15.30;71.40;;;;;;4999974;28;92129;-42
2022/09/28 10:44:27;;;;;;;;;;;15.30;71.20;;;;;;4999308;28;92981;-42
2022/09/28 10:46:57;;;;;;;;;;;15.30;71.50;;;;;;4999384;28;92804;-42
2022/09/28 10:49:24;;;;;;;;;;;15.30;71.50;;;;;;4999806;28;93418;-42
2022/09/28 10:51:52;;;;;;;;;;;15.30;71.00;;;;;;4999190;28;93142;-42
2022/09/28 10:54:18;;;;;;;;;;;15.40;71.50;;;;;;5002351;28;91999;-42
2022/09/28 10:56:44;;;;;;;;;;;15.30;71.60;;;;;;4998522;28;93322;-43
2022/09/28 10:59:28;;;;;;;;;;;15.30;71.80;;;;;;4999502;28;92129;-43
2022/09/28 11:01:56;;;;;;;;;;;15.40;71.60;;;;;;4999728;28;92543;-42
2022/09/28 11:04:25;;;;;;;;;;;15.40;71.80;;;;;;4999309;28;92230;-42
2022/09/28 11:06:51;;;;;;;;;;;15.40;71.60;;;;;;4999461;28;92134;-43
2022/09/28 11:09:27;;;;;;;;;;;15.40;71.30;;;;;;4998898;28;92078;-42
2022/09/28 11:11:53;;;;;;;;;;;15.40;71.80;;;;;;4998233;28;93228;-42
2022/09/28 11:14:21;;;;;;;;;;;15.40;71.20;;;;;;5002324;28;92088;-43
2022/09/28 11:16:47;;;;;;;;;;;15.40;71.80;;;;;;4998620;28;93018;-42
2022/09/28 11:19:19;;;;;;;;;;;15.40;71.90;;;;;;4999366;28;92286;-41
2022/09/28 11:21:47;;;;;;;;;;;15.40;71.70;;;;;;4998949;28;92536;-42
2022/09/28 11:24:23;;;;;;;;;;;15.50;71.80;;;;;;4998289;28;92964;-43
2022/09/28 11:26:51;;;;;;;;;;;15.50;71.80;;;;;;4999019;28;92124;-42
2022/09/28 11:29:37;;;;;;;;;;;15.50;71.80;;;;;;4999390;28;92339;-42
2022/09/28 11:32:03;;;;;;;;;;;15.50;71.80;;;;;;4998232;28;92987;-42
2022/09/28 11:34:34;;;;;;;;;;;15.50;71.80;;;;;;4998921;28;92394;-42
2022/09/28 11:37:08;;;;;;;;;;;15.50;72.00;;;;;;5001070;28;92857;-43
2022/09/28 11:39:46;;;;;;;;;;;15.50;71.90;;;;;;4999145;28;92131;-43
2022/09/28 11:42:17;;;;;;;;;;;15.50;72.10;;;;;;4998918;28;92005;-42
2022/09/28 11:44:47;;;;;;;;;;;15.50;72.10;;;;;;4998566;28;93174;-43
2022/09/28 11:47:12;;;;;;;;;;;15.50;72.00;;;;;;4998935;28;92131;-43
2022/09/28 11:49:40;;;;;;;;;;;15.50;72.10;;;;;;4999057;28;92543;-42
2022/09/28 11:52:09;;;;;;;;;;;15.60;72.00;;;;;;4998355;28;92637;-42
2022/09/28 11:54:41;;;;;;;;;;;15.60;71.90;;;;;;4997680;28;91488;-43
2022/09/28 11:57:10;;;;;;;;;;;15.60;72.00;;;;;;4998430;28;92106;-43
2022/09/28 11:59:41;;;;;;;;;;;15.60;71.90;;;;;;5001283;28;93253;-42
2022/09/28 12:02:33;;;;;;;;;;;15.70;72.00;;;;;;4997934;28;92993;-42
2022/09/28 12:05:17;;;;;;;;;;;15.60;71.90;;;;;;4996664;28;92352;-43
2022/09/28 12:07:45;;;;;;;;;;;15.70;71.90;;;;;;4998632;28;92183;-43
2022/09/28 12:10:13;;;;;;;;;;;15.70;71.90;;;;;;4998179;28;92350;-42
2022/09/28 12:12:44;;;;;;;;;;;15.70;71.80;;;;;;4997879;28;93041;-42
2022/09/28 12:15:21;;;;;;;;;;;15.80;71.80;;;;;;4998669;28;92004;-43
2022/09/28 12:17:49;;;;;;;;;;;15.70;71.80;;;;;;4998728;28;92660;-43
2022/09/28 12:20:19;;;;;;;;;;;15.80;71.90;;;;;;4998478;28;92348;-42
2022/09/28 12:22:48;;;;;;;;;;;15.80;72.00;;;;;;5001427;28;92085;-42
2022/09/28 12:25:15;;;;;;;;;;;15.80;72.00;;;;;;4996587;28;94277;-42
2022/09/28 12:27:45;;;;;;;;;;;15.70;72.00;;;;;;4997845;28;93049;-42
2022/09/28 12:30:10;;;;;;;;;;;15.70;71.90;;;;;;4998280;28;93369;-42
2022/09/28 12:32:51;;;;;;;;;;;15.70;72.60;;;;;;4998101;28;93098;-42
2022/09/28 12:35:31;;;;;;;;;;;15.80;72.10;;;;;;4999906;28;92109;-42
2022/09/28 12:38:07;;;;;;;;;;;15.70;71.90;;;;;;5001993;28;92056;-42
2022/09/28 12:40:38;;;;;;;;;;;15.70;72.00;;;;;;5000758;28;93400;-42
2022/09/28 12:43:08;;;;;;;;;;;15.80;72.00;;;;;;5001634;28;92163;-42
2022/09/28 12:45:45;;;;;;;;;;;15.80;72.00;;;;;;5004580;28;92422;-42
2022/09/28 12:48:13;;;;;;;;;;;15.80;72.10;;;;;;5001791;28;92224;-42
2022/09/28 12:50:59;;;;;;;;;;;15.80;71.90;;;;;;5001526;28;92393;-42
2022/09/28 12:53:43;;;;;;;;;;;15.80;72.00;;;;;;5000231;28;94007;-42
2022/09/28 12:56:18;;;;;;;;;;;15.80;71.90;;;;;;5001266;28;92230;-42
2022/09/28 12:58:58;;;;;;;;;;;15.90;72.00;;;;;;5001400;28;92348;-42
2022/09/28 13:01:42;;;;;;;;;;;15.90;71.90;;;;;;5000640;28;92998;-42
2022/09/28 13:04:10;;;;;;;;;;;15.80;72.40;;;;;;5001057;28;91929;-42
2022/09/28 13:06:39;;;;;;;;;;;15.90;72.00;;;;;;5003960;28;92565;-42
2022/09/28 13:09:04;;;;;;;;;;;15.90;72.00;;;;;;5000922;28;92237;-40
2022/09/28 13:11:40;;;;;;;;;;;15.90;72.10;;;;;;5001731;28;92445;-43
2022/09/28 13:14:24;;;;;;;;;;;15.90;72.40;;;;;;5000397;28;93173;-43
2022/09/28 13:16:49;;;;;;;;;;;15.90;71.80;;;;;;5000921;28;92326;-43
2022/09/28 13:19:21;;;;;;;;;;;15.90;71.90;;;;;;5000446;28;93061;-43
2022/09/28 13:22:01;;;;;;;;;;;16.00;71.90;;;;;;5000324;28;93009;-43
2022/09/28 13:24:30;;;;;;;;;;;16.00;72.00;;;;;;5000704;28;92060;-42
2022/09/28 13:26:58;;;;;;;;;;;16.00;71.90;;;;;;5000676;28;92760;-42
2022/09/28 13:29:25;;;;;;;;;;;16.00;71.90;;;;;;5003240;28;92503;-43
2022/09/28 13:31:56;;;;;;;;;;;16.00;71.90;;;;;;5000879;28;92381;-42
2022/09/28 13:34:23;;;;;;;;;;;16.00;71.90;;;;;;5000336;28;93099;-43
2022/09/28 13:37:08;;;;;;;;;;;16.00;71.90;;;;;;5000845;28;91457;-43
2022/09/28 13:39:37;;;;;;;;;;;16.00;71.90;;;;;;5000995;28;92013;-42
2022/09/28 13:42:04;;;;;;;;;;;16.10;71.90;;;;;;5000257;28;93303;-42
2022/09/28 13:44:37;;;;;;;;;;;16.10;72.00;;;;;;5000050;28;93053;-43
2022/09/28 13:47:02;;;;;;;;;;;16.10;71.90;;;;;;5000339;28;92353;-42
2022/09/28 13:49:28;;;;;;;;;;;16.10;71.90;;;;;;4999709;28;93164;-42
2022/09/28 13:52:19;;;;;;;;;;;16.10;71.90;;;;;;5003628;28;92135;-42
2022/09/28 13:54:49;;;;;;;;;;;16.10;71.80;;;;;;5000078;28;93349;-42
2022/09/28 13:57:24;;;;;;;;;;;16.10;71.80;;;;;;5000380;28;92162;-42
2022/09/28 13:59:57;;;;;;;;;;;16.10;71.80;;;;;;5000451;28;91973;-44
2022/09/28 14:02:27;;;;;;;;;;;16.20;71.70;;;;;;5000166;28;92557;-42
2022/09/28 14:04:53;;;;;;;;;;;16.10;71.70;;;;;;5000307;28;91874;-42
2022/09/28 14:07:39;;;;;;;;;;;16.20;71.80;;;;;;5000522;28;92315;-42
2022/09/28 14:10:17;;;;;;;;;;;16.20;71.70;;;;;;4986894;28;93900;-42
2022/09/28 14:12:46;;;;;;;;;;;16.20;71.70;;;;;;5000002;28;92156;-42
2022/09/28 14:15:42;;;;;;;;;;;16.20;71.80;;;;;;5002592;28;92437;-42
2022/09/28 14:18:13;;;;;;;;;;;16.20;71.70;;;;;;4994843;28;92154;-42
2022/09/28 14:20:42;;;;;;;;;;;16.20;71.70;;;;;;5000049;28;92325;-43
2022/09/28 14:23:15;;;;;;;;;;;16.20;71.70;;;;;;4999187;28;93188;-42
2022/09/28 14:25:45;;;;;;;;;;;16.20;71.60;;;;;;5000324;28;92099;-42
2022/09/28 14:28:25;;;;;;;;;;;16.20;71.60;;;;;;5000460;28;92364;-42
2022/09/28 14:30:56;;;;;;;;;;;16.20;71.60;;;;;;4999455;28;93192;-42
2022/09/28 14:33:25;;;;;;;;;;;16.20;71.60;;;;;;4999790;28;92214;-42
2022/09/28 14:36:01;;;;;;;;;;;16.30;71.70;;;;;;4999063;28;92924;-43